This is the latest recevied weather packets stored in our database for station/object K7LDN-13. If no packets are shown the sender has not sent any weather packets the latest 10 day(s).
| Time | Temp. | Humidity | Pressure | Rain* | Wind** | Luminosity | Snow |
|---|---|---|---|---|---|---|---|
| 1777794976 | 11.67° C | 39% | 1019.5 hPa | 0 mm | - | 0 W/m² | - |
| 1777794673 | 11.67° C | 39% | 1019.3 hPa | 0 mm | - | 0 W/m² | - |
| 1777794369 | 11.67° C | 39% | 1019.5 hPa | 0 mm | - | 0 W/m² | - |
| 1777794064 | 11.67° C | 39% | 1019.6 hPa | 0 mm | - | 0 W/m² | - |
| 1777793761 | 11.11° C | 41% | 1019.5 hPa | 0 mm | - | 0 W/m² | - |
| 1777793460 | 11.11° C | 41% | 1019.7 hPa | 0 mm | - | 0 W/m² | - |
| 1777793157 | 11.11° C | 42% | 1019.5 hPa | 0 mm | - | 0 W/m² | - |
| 1777792854 | 10.56° C | 44% | 1019.5 hPa | 0 mm | - | 0 W/m² | - |
| 1777792550 | 10.56° C | 45% | 1019.5 hPa | 0 mm | - | 0 W/m² | - |
| 1777792247 | 10.56° C | 47% | 1019.5 hPa | 0 mm | - | 0 W/m² | - |
| 1777791943 | 11.11° C | 46% | 1019.4 hPa | 0 mm | - | 0 W/m² | - |
| 1777791643 | 11.11° C | 44% | 1019.5 hPa | 0 mm | - | 0 W/m² | - |
| 1777791339 | 11.11° C | 44% | 1019.6 hPa | 0 mm | - | 0 W/m² | - |
| 1777791037 | 11.67° C | 42% | 1019.6 hPa | 0 mm | - | 0 W/m² | - |
| 1777790734 | 11.11° C | 44% | 1019.5 hPa | 0 mm | - | 0 W/m² | - |
| 1777790431 | 11.11° C | 44% | 1019.6 hPa | 0 mm | - | 0 W/m² | - |
| 1777790128 | 11.11° C | 43% | 1019.6 hPa | 0 mm | - | 0 W/m² | - |
| 1777789826 | 11.11° C | 45% | 1019.4 hPa | 0 mm | - | 0 W/m² | - |
| 1777789525 | 11.67° C | 44% | 1019.5 hPa | 0 mm | - | 0 W/m² | - |
| 1777789223 | 11.67° C | 40% | 1019.6 hPa | 0 mm | - | 0 W/m² | - |
| 1777788919 | 11.67° C | 42% | 1019.4 hPa | 0 mm | - | 0 W/m² | - |
| 1777788615 | 12.22° C | 42% | 1019.5 hPa | 0 mm | - | 0 W/m² | - |
| 1777788310 | 12.78° C | 37% | 1019.4 hPa | 0 mm | - | 0 W/m² | - |
| 1777788006 | 13.33° C | 36% | 1019.5 hPa | 0 mm | - | 0 W/m² | - |
| 1777787702 | 13.33° C | 35% | 1019.3 hPa | 0 mm | - | 0 W/m² | - |
* Rain latest hour (hover to see other rain measurements)
** Current wind speed in m/s (hover to see current wind gust speed)